Time,TemperatureF,DewpointF,PressureIn,WindDirection,WindDirectionDegrees,WindSpeedMPH,WindSpeedGustMPH,Humidity,HourlyPrecipIn,Conditions,Clouds,dailyrainin,SoftwareType,DateUTC
2013-07-21 00:00:00,71.9,63.9,29.73,West,265,0.0,4.0,76,0.00,,SCT250,0.00,VWS V14.00,2013-07-21 04:00:00,
2013-07-21 00:01:00,71.9,63.5,29.73,West,265,0.0,0.0,75,0.00,,BKN110,0.00,VWS V14.00,2013-07-21 04:01:00,
2013-07-21 00:06:00,71.5,63.2,29.74,West,263,0.0,1.0,75,0.00,,BKN110,0.00,VWS V14.00,2013-07-21 04:06:00,
2013-07-21 00:11:00,71.4,63.5,29.74,West,263,0.0,1.0,76,0.00,,BKN110,0.00,VWS V14.00,2013-07-21 04:11:00,
2013-07-21 00:16:00,71.1,63.2,29.74,West,263,0.0,1.0,76,0.00,,BKN110,0.00,VWS V14.00,2013-07-21 04:16:00,
2013-07-21 00:21:00,70.7,63.1,29.74,West,263,0.0,1.0,77,0.00,,BKN110,0.00,VWS V14.00,2013-07-21 04:21:00,
2013-07-21 00:26:00,70.2,63.4,29.74,West,263,0.0,1.0,79,0.00,,BKN110,0.00,VWS V14.00,2013-07-21 04:26:00,
2013-07-21 00:31:00,69.6,63.2,29.74,West,263,0.0,0.0,80,0.00,,BKN110,0.00,VWS V14.00,2013-07-21 04:31:00,
2013-07-21 00:36:00,69.3,63.2,29.75,West,263,0.0,0.0,81,0.00,,BKN110,0.00,VWS V14.00,2013-07-21 04:36:00,
2013-07-21 00:41:00,69.0,63.3,29.75,West,263,0.0,0.0,82,0.00,,BKN110,0.00,VWS V14.00,2013-07-21 04:41:00,
2013-07-21 00:46:00,68.6,63.2,29.75,West,263,0.0,1.0,83,0.00,,BKN110,0.00,VWS V14.00,2013-07-21 04:46:00,
2013-07-21 00:51:00,68.3,63.3,29.75,West,263,0.0,1.0,84,0.00,,BKN110,0.00,VWS V14.00,2013-07-21 04:51:00,
2013-07-21 00:56:00,67.9,63.2,29.76,West,263,0.0,1.0,85,0.00,,BKN110,0.00,VWS V14.00,2013-07-21 04:56:00,
2013-07-21 01:01:00,67.6,62.9,29.76,West,263,0.0,0.0,85,0.00,,SCT110,0.00,VWS V14.00,2013-07-21 05:01:00,
2013-07-21 01:06:00,67.5,62.8,29.76,West,263,0.0,0.0,85,0.00,,SCT110,0.00,VWS V14.00,2013-07-21 05:06:00,
2013-07-21 01:11:00,67.4,62.7,29.76,West,263,0.0,0.0,85,0.00,,SCT110,0.00,VWS V14.00,2013-07-21 05:11:00,
2013-07-21 01:16:00,67.2,62.9,29.77,West,263,0.0,1.0,86,0.00,,SCT110,0.00,VWS V14.00,2013-07-21 05:16:00,
2013-07-21 01:21:00,66.8,62.8,29.76,West,263,0.0,1.0,87,0.00,,SCT110,0.00,VWS V14.00,2013-07-21 05:21:00,
2013-07-21 01:26:00,66.6,62.9,29.77,West,263,0.0,1.0,88,0.00,,SCT110,0.00,VWS V14.00,2013-07-21 05:26:00,
2013-07-21 01:31:00,66.3,62.3,29.77,West,263,0.0,0.0,87,0.00,,SCT110,0.00,VWS V14.00,2013-07-21 05:31:00,
2013-07-21 01:36:00,66.2,62.2,29.77,West,263,0.0,0.0,87,0.00,,SCT110,0.00,VWS V14.00,2013-07-21 05:36:00,
2013-07-21 01:41:00,66.0,62.3,29.77,West,263,0.0,0.0,88,0.00,,SCT110,0.00,VWS V14.00,2013-07-21 05:41:00,
2013-07-21 01:46:00,65.8,62.2,29.78,West,263,0.0,0.0,88,0.00,,SCT110,0.00,VWS V14.00,2013-07-21 05:46:00,
2013-07-21 01:51:00,65.6,62.3,29.78,West,263,1.0,1.0,89,0.00,,SCT110,0.00,VWS V14.00,2013-07-21 05:51:00,
2013-07-21 01:56:00,65.5,62.2,29.77,West,263,0.0,1.0,89,0.00,,SCT110,0.00,VWS V14.00,2013-07-21 05:56:00,
2013-07-21 02:01:00,65.3,62.0,29.77,West,263,0.0,0.0,89,0.00,,CLR,0.00,VWS V14.00,2013-07-21 06:01:00,
2013-07-21 02:06:00,65.1,62.1,29.78,West,263,0.0,1.0,90,0.00,,CLR,0.00,VWS V14.00,2013-07-21 06:06:00,
2013-07-21 02:11:00,64.9,61.9,29.78,West,263,0.0,1.0,90,0.00,,CLR,0.00,VWS V14.00,2013-07-21 06:11:00,
2013-07-21 02:16:00,64.8,61.8,29.78,West,263,0.0,1.0,90,0.00,,CLR,0.00,VWS V14.00,2013-07-21 06:16:00,
2013-07-21 02:21:00,64.7,61.7,29.78,West,263,0.0,1.0,90,0.00,,CLR,0.00,VWS V14.00,2013-07-21 06:21:00,
2013-07-21 02:26:00,64.6,61.6,29.78,West,263,0.0,1.0,90,0.00,,CLR,0.00,VWS V14.00,2013-07-21 06:26:00,
2013-07-21 02:31:00,64.5,61.8,29.79,West,263,0.0,0.0,91,0.00,,CLR,0.00,VWS V14.00,2013-07-21 06:31:00,
2013-07-21 02:36:00,64.4,61.7,29.79,West,263,0.0,1.0,91,0.00,,CLR,0.00,VWS V14.00,2013-07-21 06:36:00,
2013-07-21 02:41:00,64.3,61.6,29.79,West,263,0.0,1.0,91,0.00,,CLR,0.00,VWS V14.00,2013-07-21 06:41:00,
2013-07-21 02:46:00,64.2,61.5,29.79,West,263,0.0,1.0,91,0.00,,CLR,0.00,VWS V14.00,2013-07-21 06:46:00,
2013-07-21 02:51:00,63.9,61.5,29.79,West,263,0.0,1.0,92,0.00,,CLR,0.00,VWS V14.00,2013-07-21 06:51:00,
2013-07-21 02:56:00,63.7,61.3,29.79,West,263,0.0,1.0,92,0.00,,CLR,0.00,VWS V14.00,2013-07-21 06:56:00,
2013-07-21 03:01:00,63.4,61.0,29.79,West,263,0.0,0.0,92,0.00,,FEW110,0.00,VWS V14.00,2013-07-21 07:01:00,
2013-07-21 03:06:00,63.2,61.2,29.80,West,263,0.0,0.0,93,0.00,,FEW110,0.00,VWS V14.00,2013-07-21 07:06:00,
2013-07-21 03:11:00,63.0,61.0,29.80,West,263,0.0,1.0,93,0.00,,FEW110,0.00,VWS V14.00,2013-07-21 07:11:00,
2013-07-21 03:16:00,62.9,60.8,29.80,West,263,0.0,1.0,93,0.00,,FEW110,0.00,VWS V14.00,2013-07-21 07:16:00,
2013-07-21 03:21:00,62.7,61.0,29.80,West,263,0.0,1.0,94,0.00,,FEW110,0.00,VWS V14.00,2013-07-21 07:21:00,
2013-07-21 03:26:00,62.5,60.8,29.81,West,263,0.0,1.0,94,0.00,,FEW110,0.00,VWS V14.00,2013-07-21 07:26:00,
2013-07-21 03:31:00,62.3,60.6,29.81,West,263,0.0,0.0,94,0.00,,FEW110,0.00,VWS V14.00,2013-07-21 07:31:00,
2013-07-21 03:36:00,62.1,60.4,29.81,West,263,0.0,0.0,94,0.00,,FEW110,0.00,VWS V14.00,2013-07-21 07:36:00,
2013-07-21 03:41:00,62.0,60.6,29.81,West,263,0.0,0.0,95,0.00,,FEW110,0.00,VWS V14.00,2013-07-21 07:41:00,
2013-07-21 03:46:00,61.9,60.5,29.81,West,263,0.0,0.0,95,0.00,,FEW110,0.00,VWS V14.00,2013-07-21 07:46:00,
2013-07-21 03:51:00,61.9,60.5,29.81,West,263,0.0,0.0,95,0.00,,FEW110,0.00,VWS V14.00,2013-07-21 07:51:00,
2013-07-21 03:56:00,61.8,60.4,29.82,West,263,0.0,0.0,95,0.00,,FEW110,0.00,VWS V14.00,2013-07-21 07:56:00,
2013-07-21 04:01:00,61.5,60.1,29.82,West,263,0.0,0.0,95,0.00,,FEW110,0.00,VWS V14.00,2013-07-21 08:01:00,
2013-07-21 04:06:00,61.4,60.0,29.82,West,263,0.0,0.0,95,0.00,,FEW110,0.00,VWS V14.00,2013-07-21 08:06:00,
2013-07-21 04:11:00,61.3,59.9,29.82,West,263,0.0,0.0,95,0.00,,FEW110,0.00,VWS V14.00,2013-07-21 08:11:00,
2013-07-21 04:16:00,61.1,60.0,29.82,West,263,0.0,0.0,96,0.00,,FEW110,0.00,VWS V14.00,2013-07-21 08:16:00,
2013-07-21 04:21:00,61.0,59.9,29.82,West,263,0.0,0.0,96,0.00,,FEW110,0.00,VWS V14.00,2013-07-21 08:21:00,
2013-07-21 04:26:00,60.9,59.8,29.82,West,263,0.0,0.0,96,0.00,,FEW110,0.00,VWS V14.00,2013-07-21 08:26:00,
2013-07-21 04:31:00,60.8,59.7,29.83,West,263,0.0,0.0,96,0.00,,FEW110,0.00,VWS V14.00,2013-07-21 08:31:00,
2013-07-21 04:36:00,60.7,59.6,29.83,West,263,0.0,0.0,96,0.00,,FEW110,0.00,VWS V14.00,2013-07-21 08:36:00,
2013-07-21 04:41:00,60.5,59.4,29.83,West,263,0.0,0.0,96,0.00,,FEW110,0.00,VWS V14.00,2013-07-21 08:41:00,
2013-07-21 04:46:00,60.4,59.3,29.83,West,263,0.0,0.0,96,0.00,,FEW110,0.00,VWS V14.00,2013-07-21 08:46:00,
2013-07-21 04:51:00,60.4,59.3,29.83,West,263,0.0,0.0,96,0.00,,FEW110,0.00,VWS V14.00,2013-07-21 08:51:00,
2013-07-21 04:56:00,60.4,59.3,29.83,West,263,0.0,0.0,96,0.00,,FEW110,0.00,VWS V14.00,2013-07-21 08:56:00,
2013-07-21 05:01:00,60.3,59.5,29.83,West,263,0.0,0.0,97,0.00,,BKN110,0.00,VWS V14.00,2013-07-21 09:01:00,
2013-07-21 05:06:00,60.2,59.3,29.84,West,263,0.0,0.0,97,0.00,,BKN110,0.00,VWS V14.00,2013-07-21 09:06:00,
2013-07-21 05:11:00,60.2,59.3,29.83,West,263,0.0,0.0,97,0.00,,BKN110,0.00,VWS V14.00,2013-07-21 09:11:00,
2013-07-21 05:16:00,60.2,59.3,29.84,West,263,0.0,0.0,97,0.00,,BKN110,0.00,VWS V14.00,2013-07-21 09:16:00,
2013-07-21 05:21:00,60.1,59.2,29.84,West,263,0.0,0.0,97,0.00,,BKN110,0.00,VWS V14.00,2013-07-21 09:21:00,
2013-07-21 05:26:00,60.0,59.2,29.84,West,263,0.0,0.0,97,0.00,,BKN110,0.00,VWS V14.00,2013-07-21 09:26:00,
2013-07-21 05:31:00,59.9,59.0,29.84,West,263,0.0,0.0,97,0.00,,BKN110,0.00,VWS V14.00,2013-07-21 09:31:00,
2013-07-21 05:36:00,59.9,59.0,29.85,West,263,0.0,0.0,97,0.00,,BKN110,0.00,VWS V14.00,2013-07-21 09:36:00,
2013-07-21 05:41:00,59.9,59.0,29.85,West,263,0.0,0.0,97,0.00,,BKN110,0.00,VWS V14.00,2013-07-21 09:41:00,
2013-07-21 05:46:00,59.8,59.0,29.85,West,263,0.0,0.0,97,0.00,,BKN110,0.00,VWS V14.00,2013-07-21 09:46:00,
2013-07-21 05:51:00,59.9,59.0,29.85,West,263,0.0,0.0,97,0.00,,BKN110,0.00,VWS V14.00,2013-07-21 09:51:00,
2013-07-21 05:56:00,60.0,59.2,29.86,West,263,0.0,0.0,97,0.00,,BKN110,0.00,VWS V14.00,2013-07-21 09:56:00,
2013-07-21 06:01:00,60.2,59.3,29.86,West,263,0.0,0.0,97,0.00,,BKN100,0.00,VWS V14.00,2013-07-21 10:01:00,
2013-07-21 06:06:00,60.2,59.3,29.86,West,263,0.0,0.0,97,0.00,,BKN100,0.00,VWS V14.00,2013-07-21 10:06:00,
2013-07-21 06:11:00,60.6,59.8,29.86,West,263,0.0,0.0,97,0.00,,BKN100,0.00,VWS V14.00,2013-07-21 10:11:00,
2013-07-21 06:16:00,60.8,60.0,29.87,West,263,0.0,0.0,97,0.00,,BKN100,0.00,VWS V14.00,2013-07-21 10:16:00,
2013-07-21 06:21:00,61.0,60.2,29.87,West,263,0.0,0.0,97,0.00,,BKN100,0.00,VWS V14.00,2013-07-21 10:21:00,
2013-07-21 06:26:00,61.3,60.4,29.87,West,263,0.0,0.0,97,0.00,,BKN100,0.00,VWS V14.00,2013-07-21 10:26:00,
2013-07-21 06:31:00,61.8,60.7,29.87,West,263,0.0,0.0,96,0.00,,BKN100,0.00,VWS V14.00,2013-07-21 10:31:00,
2013-07-21 06:36:00,62.9,61.5,29.88,West,263,0.0,0.0,95,0.00,,BKN100,0.00,VWS V14.00,2013-07-21 10:36:00,
2013-07-21 06:41:00,63.1,61.3,29.88,West,263,0.0,0.0,94,0.00,,BKN100,0.00,VWS V14.00,2013-07-21 10:41:00,
2013-07-21 06:46:00,63.4,61.7,29.88,West,263,0.0,0.0,94,0.00,,BKN100,0.00,VWS V14.00,2013-07-21 10:46:00,
2013-07-21 06:51:00,63.7,61.6,29.88,West,263,0.0,0.0,93,0.00,,BKN100,0.00,VWS V14.00,2013-07-21 10:51:00,
2013-07-21 06:56:00,64.4,62.6,29.88,West,263,0.0,0.0,94,0.00,,BKN100,0.00,VWS V14.00,2013-07-21 10:56:00,
2013-07-21 07:01:00,64.9,62.8,29.88,ESE,115,0.0,2.0,93,0.00,,BKN095,0.00,VWS V14.00,2013-07-21 11:01:00,
2013-07-21 07:06:00,65.7,61.4,29.88,ESE,115,0.0,2.0,86,0.00,,BKN095,0.00,VWS V14.00,2013-07-21 11:06:00,
2013-07-21 07:11:00,66.2,60.5,29.88,East,84,0.0,3.0,82,0.00,,BKN095,0.00,VWS V14.00,2013-07-21 11:11:00,
2013-07-21 07:16:00,66.6,60.6,29.88,East,84,3.0,3.0,81,0.00,,BKN095,0.00,VWS V14.00,2013-07-21 11:16:00,
2013-07-21 07:21:00,66.9,60.5,29.88,ESE,102,0.0,3.0,80,0.00,,BKN095,0.00,VWS V14.00,2013-07-21 11:21:00,
2013-07-21 07:26:00,67.1,60.4,29.88,ENE,76,2.0,3.0,79,0.00,,BKN095,0.00,VWS V14.00,2013-07-21 11:26:00,
2013-07-21 07:31:00,67.3,59.8,29.88,East,80,0.0,0.0,77,0.00,,BKN095,0.00,VWS V14.00,2013-07-21 11:31:00,
2013-07-21 07:36:00,67.9,60.4,29.88,ENE,75,4.0,4.0,77,0.00,,BKN095,0.00,VWS V14.00,2013-07-21 11:36:00,
2013-07-21 07:41:00,68.1,60.3,29.89,East,87,5.0,5.0,76,0.00,,BKN095,0.00,VWS V14.00,2013-07-21 11:41:00,
2013-07-21 07:46:00,68.6,59.6,29.89,East,87,3.0,5.0,73,0.00,,BKN095,0.00,VWS V14.00,2013-07-21 11:46:00,
2013-07-21 07:51:00,68.0,59.4,29.89,ENE,76,0.0,5.0,74,0.00,,BKN095,0.00,VWS V14.00,2013-07-21 11:51:00,
2013-07-21 07:56:00,67.8,59.6,29.89,ENE,75,2.0,5.0,75,0.00,,BKN095,0.00,VWS V14.00,2013-07-21 11:56:00,
2013-07-21 08:01:00,67.7,58.7,29.89,ENE,73,0.0,0.0,73,0.00,,SCT250,0.00,VWS V14.00,2013-07-21 12:01:00,
2013-07-21 08:06:00,68.1,59.5,29.90,ENE,73,0.0,3.0,74,0.00,,SCT250,0.00,VWS V14.00,2013-07-21 12:06:00,
2013-07-21 08:11:00,68.6,58.8,29.90,ENE,73,1.0,4.0,71,0.00,,SCT250,0.00,VWS V14.00,2013-07-21 12:11:00,
2013-07-21 08:16:00,69.4,60.4,29.90,ENE,73,1.0,4.0,73,0.00,,SCT250,0.00,VWS V14.00,2013-07-21 12:16:00,
2013-07-21 08:21:00,69.3,58.7,29.90,East,99,3.0,7.0,69,0.00,,SCT250,0.00,VWS V14.00,2013-07-21 12:21:00,
2013-07-21 08:26:00,69.6,60.6,29.90,SE,126,2.0,7.0,73,0.00,,SCT250,0.00,VWS V14.00,2013-07-21 12:26:00,
2013-07-21 08:30:00,69.7,59.5,29.90,ENE,67,3.0,5.0,70,0.00,,SCT250,0.00,VWS V14.00,2013-07-21 12:30:00,
2013-07-21 08:36:00,69.4,58.4,29.90,ENE,69,3.0,6.0,68,0.00,,SCT250,0.00,VWS V14.00,2013-07-21 12:36:00,
2013-07-21 08:41:00,69.9,59.7,29.90,ENE,61,4.0,8.0,70,0.00,,SCT250,0.00,VWS V14.00,2013-07-21 12:41:00,
2013-07-21 08:46:00,70.1,59.1,29.90,East,96,5.0,8.0,68,0.00,,SCT250,0.00,VWS V14.00,2013-07-21 12:46:00,
2013-07-21 08:51:00,70.3,60.5,29.91,NE,46,0.0,8.0,71,0.00,,SCT250,0.00,VWS V14.00,2013-07-21 12:51:00,
2013-07-21 08:55:00,70.6,59.1,29.91,ENE,72,0.0,8.0,67,0.00,,SCT250,0.00,VWS V14.00,2013-07-21 12:55:00,
2013-07-21 09:00:00,70.4,60.6,29.91,ESE,107,3.0,3.0,71,0.00,,SCT250,0.00,VWS V14.00,2013-07-21 13:00:00,
2013-07-21 09:05:00,70.2,60.0,29.91,East,87,2.0,5.0,70,0.00,,SCT250,0.00,VWS V14.00,2013-07-21 13:05:00,
2013-07-21 09:10:00,70.3,59.2,29.91,ENE,64,4.0,5.0,68,0.00,,SCT250,0.00,VWS V14.00,2013-07-21 13:10:00,
2013-07-21 09:15:00,70.5,59.4,29.91,ESE,115,3.0,5.0,68,0.00,,SCT250,0.00,VWS V14.00,2013-07-21 13:15:00,
2013-07-21 09:20:00,71.1,60.8,29.91,NE,49,4.0,6.0,70,0.00,,SCT250,0.00,VWS V14.00,2013-07-21 13:20:00,
2013-07-21 09:25:00,70.9,59.8,29.91,NE,49,0.0,6.0,68,0.00,,SCT250,0.00,VWS V14.00,2013-07-21 13:25:00,
2013-07-21 09:30:00,71.0,60.3,29.92,ESE,105,2.0,2.0,69,0.00,,SCT250,0.00,VWS V14.00,2013-07-21 13:30:00,
2013-07-21 09:35:00,70.6,59.1,29.92,ENE,71,1.0,7.0,67,0.00,,SCT250,0.00,VWS V14.00,2013-07-21 13:35:00,
2013-07-21 09:41:00,70.9,59.8,29.92,ENE,65,0.0,7.0,68,0.00,,SCT250,0.00,VWS V14.00,2013-07-21 13:41:00,
2013-07-21 09:46:00,71.5,60.8,29.92,South,175,0.0,7.0,69,0.00,,SCT250,0.00,VWS V14.00,2013-07-21 13:46:00,
2013-07-21 09:51:00,71.8,61.1,29.92,East,87,3.0,7.0,69,0.00,,SCT250,0.00,VWS V14.00,2013-07-21 13:51:00,
2013-07-21 09:56:00,71.5,60.0,29.92,ESE,123,2.0,7.0,67,0.00,,SCT250,0.00,VWS V14.00,2013-07-21 13:56:00,
2013-07-21 10:01:00,71.6,60.1,29.92,East,88,3.0,3.0,67,0.00,,SCT250,0.00,VWS V14.00,2013-07-21 14:01:00,
2013-07-21 10:06:00,71.9,60.8,29.92,East,101,0.0,6.0,68,0.00,,SCT250,0.00,VWS V14.00,2013-07-21 14:06:00,
2013-07-21 10:11:00,72.2,59.4,29.92,East,100,1.0,6.0,64,0.00,,SCT250,0.00,VWS V14.00,2013-07-21 14:11:00,
2013-07-21 10:16:00,72.3,59.9,29.92,ESE,117,3.0,7.0,65,0.00,,SCT250,0.00,VWS V14.00,2013-07-21 14:16:00,
2013-07-21 10:21:00,72.3,59.9,29.92,SE,124,1.0,7.0,65,0.00,,SCT250,0.00,VWS V14.00,2013-07-21 14:21:00,
2013-07-21 10:26:00,72.6,59.7,29.92,East,79,1.0,7.0,64,0.00,,SCT250,0.00,VWS V14.00,2013-07-21 14:26:00,
2013-07-21 10:31:00,72.2,59.4,29.93,SSW,207,3.0,6.0,64,0.00,,SCT250,0.00,VWS V14.00,2013-07-21 14:31:00,
2013-07-21 10:36:00,72.7,61.5,29.93,SE,144,1.0,6.0,68,0.00,,SCT250,0.00,VWS V14.00,2013-07-21 14:36:00,
2013-07-21 10:41:00,72.4,59.1,29.93,ESE,106,3.0,7.0,63,0.00,,SCT250,0.00,VWS V14.00,2013-07-21 14:41:00,
2013-07-21 10:46:00,72.1,59.7,29.93,East,98,1.0,7.0,65,0.00,,SCT250,0.00,VWS V14.00,2013-07-21 14:46:00,
2013-07-21 10:51:00,72.1,59.7,29.93,South,169,2.0,7.0,65,0.00,,SCT250,0.00,VWS V14.00,2013-07-21 14:51:00,
2013-07-21 10:56:00,72.0,58.3,29.93,East,91,2.0,7.0,62,0.00,,SCT250,0.00,VWS V14.00,2013-07-21 14:56:00,
2013-07-21 11:01:00,71.5,57.4,29.93,South,180,1.0,5.0,61,0.00,,BKN250,0.00,VWS V14.00,2013-07-21 15:01:00,
2013-07-21 11:06:00,71.2,57.1,29.93,NE,51,3.0,5.0,61,0.00,,BKN250,0.00,VWS V14.00,2013-07-21 15:06:00,
2013-07-21 11:11:00,71.4,57.3,29.93,East,94,5.0,9.0,61,0.00,,BKN250,0.00,VWS V14.00,2013-07-21 15:11:00,
2013-07-21 11:16:00,71.1,58.8,29.93,SSE,149,2.0,9.0,65,0.00,,BKN250,0.00,VWS V14.00,2013-07-21 15:16:00,
2013-07-21 11:21:00,71.2,56.6,29.94,SW,232,4.0,9.0,60,0.00,,BKN250,0.00,VWS V14.00,2013-07-21 15:21:00,
2013-07-21 11:26:00,71.0,56.9,29.94,SSE,167,4.0,9.0,61,0.00,,BKN250,0.00,VWS V14.00,2013-07-21 15:26:00,
2013-07-21 11:31:00,71.0,58.7,29.94,ESE,103,1.0,2.0,65,0.00,,BKN250,0.00,VWS V14.00,2013-07-21 15:31:00,
2013-07-21 11:36:00,70.6,56.1,29.94,ENE,64,4.0,5.0,60,0.00,,BKN250,0.00,VWS V14.00,2013-07-21 15:36:00,
2013-07-21 11:41:00,70.4,56.3,29.94,East,84,1.0,6.0,61,0.00,,BKN250,0.00,VWS V14.00,2013-07-21 15:41:00,
2013-07-21 11:46:00,70.3,55.8,29.94,East,84,3.0,7.0,60,0.00,,BKN250,0.00,VWS V14.00,2013-07-21 15:46:00,
2013-07-21 11:50:00,69.9,56.8,29.94,SE,134,1.0,8.0,63,0.00,,BKN250,0.00,VWS V14.00,2013-07-21 15:50:00,
2013-07-21 11:55:00,69.9,57.2,29.94,ENE,75,3.0,8.0,64,0.00,,BKN250,0.00,VWS V14.00,2013-07-21 15:55:00,
2013-07-21 12:00:00,69.9,56.8,29.94,ESE,118,2.0,5.0,63,0.00,,BKN250,0.00,VWS V14.00,2013-07-21 16:00:00,
2013-07-21 12:05:00,70.1,58.2,29.94,ESE,105,1.0,5.0,66,0.00,,BKN250,0.00,VWS V14.00,2013-07-21 16:05:00,
2013-07-21 12:10:00,70.0,56.4,29.94,East,100,3.0,8.0,62,0.00,,BKN250,0.00,VWS V14.00,2013-07-21 16:10:00,
2013-07-21 12:15:00,70.0,56.8,29.94,SE,132,4.0,8.0,63,0.00,,BKN250,0.00,VWS V14.00,2013-07-21 16:15:00,
2013-07-21 12:20:00,70.4,57.7,29.94,ENE,71,1.0,8.0,64,0.00,,BKN250,0.00,VWS V14.00,2013-07-21 16:20:00,
2013-07-21 12:25:00,71.0,57.3,29.94,NE,45,3.0,8.0,62,0.00,,BKN250,0.00,VWS V14.00,2013-07-21 16:25:00,
2013-07-21 12:30:00,71.8,59.4,29.94,ENE,70,4.0,7.0,65,0.00,,BKN250,0.00,VWS V14.00,2013-07-21 16:30:00,
2013-07-21 12:35:00,71.6,56.5,29.95,East,99,3.0,7.0,59,0.00,,BKN250,0.00,VWS V14.00,2013-07-21 16:35:00,
2013-07-21 12:40:00,72.0,55.5,29.95,ENE,57,5.0,10.0,56,0.00,,BKN250,0.00,VWS V14.00,2013-07-21 16:40:00,
2013-07-21 12:45:00,71.6,55.6,29.95,East,95,5.0,10.0,57,0.00,,BKN250,0.00,VWS V14.00,2013-07-21 16:45:00,
2013-07-21 12:50:00,71.2,56.2,29.95,East,82,5.0,10.0,59,0.00,,BKN250,0.00,VWS V14.00,2013-07-21 16:50:00,
2013-07-21 12:55:00,71.4,54.9,29.95,ESE,113,2.0,10.0,56,0.00,,BKN250,0.00,VWS V14.00,2013-07-21 16:55:00,
2013-07-21 13:00:00,72.0,56.4,29.94,ESE,111,5.0,5.0,58,0.00,,OVC250,0.00,VWS V14.00,2013-07-21 17:00:00,
2013-07-21 13:05:00,71.7,55.7,29.94,East,88,7.0,8.0,57,0.00,,OVC250,0.00,VWS V14.00,2013-07-21 17:05:00,
2013-07-21 13:10:00,72.1,56.0,29.94,East,88,3.0,10.0,57,0.00,,OVC250,0.00,VWS V14.00,2013-07-21 17:10:00,
2013-07-21 13:15:00,72.4,56.3,29.94,SE,142,2.0,10.0,57,0.00,,OVC250,0.00,VWS V14.00,2013-07-21 17:15:00,
2013-07-21 13:20:00,73.4,57.7,29.94,East,93,2.0,10.0,58,0.00,,OVC250,0.00,VWS V14.00,2013-07-21 17:20:00,
2013-07-21 13:25:00,72.6,56.0,29.94,East,82,2.0,10.0,56,0.00,,OVC250,0.00,VWS V14.00,2013-07-21 17:25:00,
2013-07-21 13:30:00,72.5,58.3,29.94,East,91,6.0,7.0,61,0.00,,OVC250,0.00,VWS V14.00,2013-07-21 17:30:00,
2013-07-21 13:35:00,72.1,57.5,29.94,SSW,196,1.0,8.0,60,0.00,,OVC250,0.00,VWS V14.00,2013-07-21 17:35:00,
2013-07-21 13:40:00,71.6,58.8,29.94,NNE,28,0.0,8.0,64,0.00,,OVC250,0.00,VWS V14.00,2013-07-21 17:40:00,
2013-07-21 13:45:00,71.9,58.6,29.95,ESE,113,1.0,8.0,63,0.00,,OVC250,0.00,VWS V14.00,2013-07-21 17:45:00,
2013-07-21 13:50:00,72.4,58.7,29.95,SSE,167,2.0,8.0,62,0.00,,OVC250,0.00,VWS V14.00,2013-07-21 17:50:00,
2013-07-21 13:55:00,71.9,59.1,29.94,East,93,2.0,10.0,64,0.00,,OVC250,0.00,VWS V14.00,2013-07-21 17:55:00,
2013-07-21 14:00:00,71.4,58.6,29.95,ESE,103,5.0,5.0,64,0.00,,OVC250,0.00,VWS V14.00,2013-07-21 18:00:00,
2013-07-21 14:05:00,71.3,58.9,29.94,ESE,123,4.0,6.0,65,0.00,,OVC250,0.00,VWS V14.00,2013-07-21 18:05:00,
2013-07-21 14:10:00,70.9,58.1,29.94,SSW,207,1.0,8.0,64,0.00,,OVC250,0.00,VWS V14.00,2013-07-21 18:10:00,
2013-07-21 14:15:00,70.7,59.2,29.95,NE,53,4.0,8.0,67,0.00,,OVC250,0.00,VWS V14.00,2013-07-21 18:15:00,
2013-07-21 14:20:00,70.6,58.7,29.94,ESE,102,5.0,8.0,66,0.00,,OVC250,0.00,VWS V14.00,2013-07-21 18:20:00,
2013-07-21 14:25:00,70.4,58.9,29.94,East,88,5.0,8.0,67,0.00,,OVC250,0.00,VWS V14.00,2013-07-21 18:25:00,
2013-07-21 14:30:00,70.2,58.3,29.94,SE,136,0.0,0.0,66,0.00,,OVC250,0.00,VWS V14.00,2013-07-21 18:30:00,
2013-07-21 14:35:00,70.7,58.8,29.94,East,80,0.0,7.0,66,0.00,,OVC250,0.00,VWS V14.00,2013-07-21 18:35:00,
2013-07-21 14:40:00,71.6,60.1,29.94,SSW,210,3.0,9.0,67,0.00,,OVC250,0.00,VWS V14.00,2013-07-21 18:40:00,
2013-07-21 14:45:00,71.3,58.9,29.94,WSW,250,5.0,9.0,65,0.00,,OVC250,0.00,VWS V14.00,2013-07-21 18:45:00,
2013-07-21 14:50:00,71.2,59.7,29.94,SSE,157,3.0,9.0,67,0.00,,OVC250,0.00,VWS V14.00,2013-07-21 18:50:00,
2013-07-21 14:55:00,71.1,58.8,29.94,SSW,211,0.0,9.0,65,0.00,,OVC250,0.00,VWS V14.00,2013-07-21 18:55:00,
2013-07-21 15:00:00,70.9,58.6,29.94,ESE,111,1.0,2.0,65,0.00,,BKN250,0.00,VWS V14.00,2013-07-21 19:00:00,
2013-07-21 15:05:00,71.2,59.7,29.94,East,100,2.0,9.0,67,0.00,,BKN250,0.00,VWS V14.00,2013-07-21 19:05:00,
2013-07-21 15:10:00,71.6,58.8,29.94,ESE,105,3.0,9.0,64,0.00,,BKN250,0.00,VWS V14.00,2013-07-21 19:10:00,
2013-07-21 15:15:00,72.0,60.0,29.94,ESE,112,1.0,9.0,66,0.00,,BKN250,0.00,VWS V14.00,2013-07-21 19:15:00,
2013-07-21 15:20:00,71.4,58.6,29.93,ESE,103,3.0,12.0,64,0.00,,BKN250,0.00,VWS V14.00,2013-07-21 19:20:00,
2013-07-21 15:25:00,71.7,60.2,29.93,SE,128,2.0,12.0,67,0.00,,BKN250,0.00,VWS V14.00,2013-07-21 19:25:00,
2013-07-21 15:30:00,71.7,60.6,29.93,ENE,69,3.0,3.0,68,0.00,,BKN250,0.00,VWS V14.00,2013-07-21 19:30:00,
2013-07-21 15:35:00,71.9,60.4,29.93,WSW,253,0.0,9.0,67,0.00,,BKN250,0.00,VWS V14.00,2013-07-21 19:35:00,
2013-07-21 15:40:00,72.1,61.4,29.93,ENE,75,5.0,9.0,69,0.00,,BKN250,0.00,VWS V14.00,2013-07-21 19:40:00,
2013-07-21 15:45:00,71.4,59.9,29.93,ESE,113,7.0,9.0,67,0.00,,BKN250,0.00,VWS V14.00,2013-07-21 19:45:00,
2013-07-21 15:50:00,71.4,60.3,29.93,ENE,67,5.0,9.0,68,0.00,,BKN250,0.00,VWS V14.00,2013-07-21 19:50:00,
2013-07-21 15:55:00,71.6,61.3,29.93,WSW,244,1.0,9.0,70,0.00,,BKN250,0.00,VWS V14.00,2013-07-21 19:55:00,
2013-07-21 16:00:00,72.5,60.5,29.93,North,355,1.0,2.0,66,0.00,,BKN090,0.00,VWS V14.00,2013-07-21 20:00:00,
2013-07-21 16:05:00,72.2,61.5,29.93,ESE,107,5.0,7.0,69,0.00,,BKN090,0.00,VWS V14.00,2013-07-21 20:05:00,
2013-07-21 16:10:00,72.0,61.7,29.93,East,95,5.0,8.0,70,0.00,,BKN090,0.00,VWS V14.00,2013-07-21 20:10:00,
2013-07-21 16:15:00,71.8,61.5,29.93,ESE,102,2.0,8.0,70,0.00,,BKN090,0.00,VWS V14.00,2013-07-21 20:15:00,
2013-07-21 16:20:00,71.9,61.6,29.93,East,95,2.0,9.0,70,0.00,,BKN090,0.00,VWS V14.00,2013-07-21 20:20:00,
2013-07-21 16:25:00,71.7,61.8,29.93,East,98,6.0,9.0,71,0.00,,BKN090,0.00,VWS V14.00,2013-07-21 20:25:00,
2013-07-21 16:30:00,71.9,61.6,29.94,ESE,122,1.0,4.0,70,0.00,,BKN090,0.00,VWS V14.00,2013-07-21 20:30:00,
2013-07-21 16:35:00,72.0,60.9,29.93,SSW,196,2.0,8.0,68,0.00,,BKN090,0.00,VWS V14.00,2013-07-21 20:35:00,
2013-07-21 16:40:00,72.1,61.0,29.94,East,93,1.0,8.0,68,0.00,,BKN090,0.00,VWS V14.00,2013-07-21 20:40:00,
2013-07-21 16:45:00,71.6,60.9,29.93,ESE,115,1.0,8.0,69,0.00,,BKN090,0.00,VWS V14.00,2013-07-21 20:45:00,
2013-07-21 16:50:00,72.1,61.8,29.93,East,96,3.0,8.0,70,0.00,,BKN090,0.00,VWS V14.00,2013-07-21 20:50:00,
2013-07-21 16:55:00,72.0,61.3,29.93,East,89,6.0,8.0,69,0.00,,BKN090,0.00,VWS V14.00,2013-07-21 20:55:00,
2013-07-21 17:00:00,71.9,61.6,29.93,SSE,151,0.0,2.0,70,0.00,,BKN090,0.00,VWS V14.00,2013-07-21 21:00:00,
2013-07-21 17:05:00,71.6,60.9,29.93,East,100,2.0,8.0,69,0.00,,BKN090,0.00,VWS V14.00,2013-07-21 21:05:00,
2013-07-21 17:10:00,71.7,61.0,29.93,SSW,211,2.0,8.0,69,0.00,,BKN090,0.00,VWS V14.00,2013-07-21 21:10:00,
2013-07-21 17:15:00,71.9,60.8,29.93,East,86,3.0,8.0,68,0.00,,BKN090,0.00,VWS V14.00,2013-07-21 21:15:00,
2013-07-21 17:20:00,72.0,60.9,29.93,South,190,0.0,8.0,68,0.00,,BKN090,0.00,VWS V14.00,2013-07-21 21:20:00,
2013-07-21 17:25:00,71.8,60.3,29.93,NE,34,1.0,8.0,67,0.00,,BKN090,0.00,VWS V14.00,2013-07-21 21:25:00,
2013-07-21 17:30:00,71.7,60.2,29.93,ESE,116,1.0,1.0,67,0.00,,BKN090,0.00,VWS V14.00,2013-07-21 21:30:00,
2013-07-21 17:35:00,71.5,60.4,29.93,East,96,2.0,7.0,68,0.00,,BKN090,0.00,VWS V14.00,2013-07-21 21:35:00,
2013-07-21 17:40:00,71.9,61.2,29.93,SSE,155,0.0,7.0,69,0.00,,BKN090,0.00,VWS V14.00,2013-07-21 21:40:00,
2013-07-21 17:45:00,72.1,61.0,29.93,ESE,115,4.0,7.0,68,0.00,,BKN090,0.00,VWS V14.00,2013-07-21 21:45:00,
2013-07-21 17:50:00,71.5,61.2,29.93,East,88,3.0,7.0,70,0.00,,BKN090,0.00,VWS V14.00,2013-07-21 21:50:00,
2013-07-21 17:55:00,71.1,61.6,29.93,SE,144,0.0,7.0,72,0.00,,BKN090,0.00,VWS V14.00,2013-07-21 21:55:00,
2013-07-21 18:00:00,71.1,61.6,29.93,ESE,108,2.0,2.0,72,0.00,,BKN090,0.00,VWS V14.00,2013-07-21 22:00:00,
2013-07-21 18:05:00,71.3,62.6,29.93,SSW,194,0.0,5.0,74,0.00,,BKN090,0.00,VWS V14.00,2013-07-21 22:05:00,
2013-07-21 18:10:00,71.3,62.2,29.93,ESE,121,1.0,5.0,73,0.00,,BKN090,0.00,VWS V14.00,2013-07-21 22:10:00,
2013-07-21 18:15:00,71.2,62.1,29.93,ENE,75,3.0,5.0,73,0.00,,BKN090,0.00,VWS V14.00,2013-07-21 22:15:00,
2013-07-21 18:20:00,71.0,62.3,29.93,East,93,0.0,5.0,74,0.00,,BKN090,0.00,VWS V14.00,2013-07-21 22:20:00,
2013-07-21 18:25:00,70.9,62.2,29.93,SW,230,0.0,5.0,74,0.00,,BKN090,0.00,VWS V14.00,2013-07-21 22:25:00,
2013-07-21 18:30:00,70.5,62.6,29.93,East,86,1.0,1.0,76,0.00,,BKN090,0.00,VWS V14.00,2013-07-21 22:30:00,
2013-07-21 18:35:00,70.2,62.7,29.93,East,92,3.0,4.0,77,0.00,,BKN090,0.00,VWS V14.00,2013-07-21 22:35:00,
2013-07-21 18:40:00,70.0,62.8,29.93,ENE,67,3.0,6.0,78,0.00,,BKN090,0.00,VWS V14.00,2013-07-21 22:40:00,
2013-07-21 18:45:00,70.0,62.8,29.93,ENE,74,0.0,6.0,78,0.00,,BKN090,0.00,VWS V14.00,2013-07-21 22:45:00,
2013-07-21 18:50:00,69.9,62.7,29.93,SE,130,0.0,6.0,78,0.00,,BKN090,0.00,VWS V14.00,2013-07-21 22:50:00,
2013-07-21 18:55:00,69.6,62.4,29.93,ESE,103,3.0,6.0,78,0.00,,BKN090,0.00,VWS V14.00,2013-07-21 22:55:00,
2013-07-21 19:00:00,69.4,62.6,29.93,SSE,163,0.0,0.0,79,0.00,,FEW060,0.00,VWS V14.00,2013-07-21 23:00:00,
2013-07-21 19:05:00,69.1,62.7,29.93,WSW,254,2.0,5.0,80,0.00,,FEW060,0.00,VWS V14.00,2013-07-21 23:05:00,
2013-07-21 19:10:00,68.8,62.0,29.93,ESE,120,0.0,5.0,79,0.00,,FEW060,0.00,VWS V14.00,2013-07-21 23:10:00,
2013-07-21 19:15:00,68.7,62.6,29.93,SSE,153,0.0,5.0,81,0.00,,FEW060,0.00,VWS V14.00,2013-07-21 23:15:00,
2013-07-21 19:20:00,68.7,62.6,29.94,SSE,153,2.0,5.0,81,0.00,,FEW060,0.00,VWS V14.00,2013-07-21 23:20:00,
2013-07-21 19:25:00,68.6,62.5,29.93,East,101,0.0,5.0,81,0.00,,FEW060,0.00,VWS V14.00,2013-07-21 23:25:00,
2013-07-21 19:30:00,68.5,62.5,29.93,East,101,0.0,1.0,81,0.00,,FEW060,0.00,VWS V14.00,2013-07-21 23:30:00,
2013-07-21 19:35:00,68.3,62.2,29.93,SE,139,0.0,3.0,81,0.00,,FEW060,0.00,VWS V14.00,2013-07-21 23:35:00,
2013-07-21 19:40:00,68.0,62.3,29.93,SE,139,0.0,3.0,82,0.00,,FEW060,0.00,VWS V14.00,2013-07-21 23:40:00,
2013-07-21 19:45:00,67.7,62.4,29.94,SSE,167,1.0,3.0,83,0.00,,FEW060,0.00,VWS V14.00,2013-07-21 23:45:00,
2013-07-21 19:50:00,67.6,62.3,29.94,SSW,198,0.0,3.0,83,0.00,,FEW060,0.00,VWS V14.00,2013-07-21 23:50:00,
2013-07-21 19:55:00,67.5,62.5,29.94,SSW,198,0.0,3.0,84,0.00,,FEW060,0.00,VWS V14.00,2013-07-21 23:55:00,
2013-07-21 20:00:00,67.3,62.3,29.94,SSW,198,0.0,0.0,84,0.00,,FEW060,0.00,VWS V14.00,2013-07-22 00:00:00,
2013-07-21 20:05:00,67.2,62.2,29.94,SE,126,0.0,2.0,84,0.00,,FEW060,0.00,VWS V14.00,2013-07-22 00:05:00,
2013-07-21 20:10:00,66.7,62.0,29.94,SE,126,0.0,2.0,85,0.00,,FEW060,0.00,VWS V14.00,2013-07-22 00:10:00,
2013-07-21 20:15:00,66.2,62.2,29.94,SE,126,0.0,2.0,87,0.00,,FEW060,0.00,VWS V14.00,2013-07-22 00:15:00,
2013-07-21 20:20:00,65.7,62.0,29.94,SE,126,0.0,2.0,88,0.00,,FEW060,0.00,VWS V14.00,2013-07-22 00:20:00,
2013-07-21 20:25:00,65.3,62.0,29.94,SE,126,0.0,2.0,89,0.00,,FEW060,0.00,VWS V14.00,2013-07-22 00:25:00,
2013-07-21 20:30:00,64.8,61.8,29.94,SE,126,0.0,0.0,90,0.00,,FEW060,0.00,VWS V14.00,2013-07-22 00:30:00,
2013-07-21 20:35:00,64.4,61.4,29.94,SE,126,0.0,0.0,90,0.00,,FEW060,0.00,VWS V14.00,2013-07-22 00:35:00,
2013-07-21 20:40:00,64.1,61.4,29.94,SE,126,0.0,0.0,91,0.00,,FEW060,0.00,VWS V14.00,2013-07-22 00:40:00,
2013-07-21 20:45:00,63.9,61.5,29.95,SE,126,0.0,0.0,92,0.00,,FEW060,0.00,VWS V14.00,2013-07-22 00:45:00,
2013-07-21 20:50:00,63.9,61.5,29.95,SE,126,0.0,0.0,92,0.00,,FEW060,0.00,VWS V14.00,2013-07-22 00:50:00,
2013-07-21 20:55:00,63.5,61.1,29.95,SE,126,0.0,0.0,92,0.00,,FEW060,0.00,VWS V14.00,2013-07-22 00:55:00,
2013-07-21 21:00:00,63.3,61.2,29.95,SE,126,0.0,0.0,93,0.00,,FEW060,0.00,VWS V14.00,2013-07-22 01:00:00,
2013-07-21 21:05:00,63.0,61.0,29.95,SE,126,0.0,0.0,93,0.00,,FEW060,0.00,VWS V14.00,2013-07-22 01:05:00,
2013-07-21 21:10:00,62.8,60.8,29.95,SE,126,0.0,0.0,93,0.00,,FEW060,0.00,VWS V14.00,2013-07-22 01:10:00,
2013-07-21 21:15:00,62.6,60.8,29.96,SE,126,0.0,0.0,94,0.00,,FEW060,0.00,VWS V14.00,2013-07-22 01:15:00,
2013-07-21 21:20:00,62.4,60.7,29.96,SE,126,0.0,0.0,94,0.00,,FEW060,0.00,VWS V14.00,2013-07-22 01:20:00,
2013-07-21 21:25:00,62.3,60.6,29.96,SE,126,0.0,0.0,94,0.00,,FEW060,0.00,VWS V14.00,2013-07-22 01:25:00,
2013-07-21 21:30:00,62.2,60.8,29.96,SE,126,0.0,0.0,95,0.00,,FEW060,0.00,VWS V14.00,2013-07-22 01:30:00,
2013-07-21 21:35:00,62.1,60.7,29.96,SE,126,0.0,0.0,95,0.00,,FEW060,0.00,VWS V14.00,2013-07-22 01:35:00,
2013-07-21 21:40:00,61.9,60.5,29.96,SE,126,0.0,0.0,95,0.00,,FEW060,0.00,VWS V14.00,2013-07-22 01:40:00,
2013-07-21 21:45:00,61.8,60.4,29.96,SE,126,0.0,0.0,95,0.00,,FEW060,0.00,VWS V14.00,2013-07-22 01:45:00,
2013-07-21 21:50:00,61.7,60.3,29.96,SE,126,0.0,0.0,95,0.00,,FEW060,0.00,VWS V14.00,2013-07-22 01:50:00,
2013-07-21 21:55:00,61.7,60.5,29.96,SE,126,0.0,0.0,96,0.00,,FEW060,0.00,VWS V14.00,2013-07-22 01:55:00,
2013-07-21 22:00:00,61.8,60.7,29.97,SE,126,0.0,0.0,96,0.00,,CLR,0.00,VWS V14.00,2013-07-22 02:00:00,
2013-07-21 22:05:00,61.8,60.7,29.97,SE,126,0.0,0.0,96,0.00,,CLR,0.00,VWS V14.00,2013-07-22 02:05:00,
2013-07-21 22:10:00,61.7,60.5,29.97,SE,126,0.0,0.0,96,0.00,,CLR,0.00,VWS V14.00,2013-07-22 02:10:00,
2013-07-21 22:15:00,61.6,60.5,29.97,SE,126,0.0,0.0,96,0.00,,CLR,0.00,VWS V14.00,2013-07-22 02:15:00,
2013-07-21 22:20:00,61.4,60.2,29.97,SE,126,0.0,0.0,96,0.00,,CLR,0.00,VWS V14.00,2013-07-22 02:20:00,
2013-07-21 22:25:00,61.4,60.2,29.97,SE,126,0.0,0.0,96,0.00,,CLR,0.00,VWS V14.00,2013-07-22 02:25:00,
2013-07-21 22:30:00,61.4,60.2,29.97,SE,126,0.0,0.0,96,0.00,,CLR,0.00,VWS V14.00,2013-07-22 02:30:00,
2013-07-21 22:35:00,61.4,60.2,29.98,SE,126,0.0,0.0,96,0.00,,CLR,0.00,VWS V14.00,2013-07-22 02:35:00,
2013-07-21 22:40:00,61.3,60.4,29.98,SE,126,0.0,0.0,97,0.00,,CLR,0.00,VWS V14.00,2013-07-22 02:40:00,
2013-07-21 22:45:00,61.2,60.3,29.98,SE,126,0.0,0.0,97,0.00,,CLR,0.00,VWS V14.00,2013-07-22 02:45:00,
2013-07-21 22:50:00,61.1,60.0,29.98,SE,126,0.0,0.0,96,0.00,,CLR,0.00,VWS V14.00,2013-07-22 02:50:00,
2013-07-21 22:55:00,61.0,60.2,29.98,SE,126,0.0,0.0,97,0.00,,CLR,0.00,VWS V14.00,2013-07-22 02:55:00,
2013-07-21 23:00:00,60.9,60.0,29.98,SE,126,0.0,0.0,97,0.00,,FEW100,0.00,VWS V14.00,2013-07-22 03:00:00,
2013-07-21 23:05:00,60.9,60.0,29.98,SE,126,0.0,0.0,97,0.00,,FEW100,0.00,VWS V14.00,2013-07-22 03:05:00,
2013-07-21 23:10:00,60.8,60.0,29.98,SE,126,0.0,0.0,97,0.00,,FEW100,0.00,VWS V14.00,2013-07-22 03:10:00,
2013-07-21 23:15:00,60.8,60.0,29.99,SE,126,0.0,0.0,97,0.00,,FEW100,0.00,VWS V14.00,2013-07-22 03:15:00,
2013-07-21 23:20:00,60.8,60.0,29.99,SE,126,0.0,0.0,97,0.00,,FEW100,0.00,VWS V14.00,2013-07-22 03:20:00,
2013-07-21 23:25:00,60.8,60.0,29.99,SE,126,0.0,0.0,97,0.00,,FEW100,0.00,VWS V14.00,2013-07-22 03:25:00,
2013-07-21 23:30:00,60.8,60.0,29.99,SE,126,0.0,0.0,97,0.00,,FEW100,0.00,VWS V14.00,2013-07-22 03:30:00,
2013-07-21 23:35:00,60.8,60.0,29.99,SE,126,0.0,0.0,97,0.00,,FEW100,0.00,VWS V14.00,2013-07-22 03:35:00,
2013-07-21 23:40:00,60.7,59.8,29.99,SE,126,0.0,0.0,97,0.00,,FEW100,0.00,VWS V14.00,2013-07-22 03:40:00,
2013-07-21 23:45:00,60.7,59.8,29.99,SE,126,0.0,0.0,97,0.00,,FEW100,0.00,VWS V14.00,2013-07-22 03:45:00,
2013-07-21 23:50:00,60.6,59.8,29.99,SE,126,0.0,0.0,97,0.00,,FEW100,0.00,VWS V14.00,2013-07-22 03:50:00,
2013-07-21 23:55:00,60.5,59.7,29.99,SE,126,0.0,0.0,97,0.00,,FEW100,0.00,VWS V14.00,2013-07-22 03:55:00,